createdAt,value
2019-02-04T00:00:35.142Z,0.00
2019-02-04T00:03:41.908Z,0.00
2019-02-04T00:06:48.749Z,0.00
2019-02-04T00:09:56.495Z,0.00
2019-02-04T00:13:03.514Z,0.00
2019-02-04T00:16:10.192Z,0.00
2019-02-04T00:19:18.577Z,0.00
2019-02-04T00:22:25.284Z,0.00
2019-02-04T00:25:32.106Z,0.00
2019-02-04T00:28:39.111Z,-0.10
2019-02-04T00:31:45.841Z,-0.10
2019-02-04T00:34:52.621Z,-0.10
2019-02-04T00:37:59.382Z,-0.10
2019-02-04T00:41:06.476Z,-0.10
2019-02-04T00:44:13.485Z,-0.10
2019-02-04T00:47:20.216Z,-0.10
2019-02-04T00:50:26.949Z,-0.10
2019-02-04T00:53:33.662Z,-0.10
2019-02-04T00:56:40.428Z,-0.10
2019-02-04T00:59:47.225Z,-0.10
2019-02-04T01:02:54.871Z,-0.10
2019-02-04T01:06:01.559Z,-0.10
2019-02-04T01:09:09.854Z,-0.10
2019-02-04T01:12:16.880Z,-0.10
2019-02-04T01:15:23.575Z,-0.10
2019-02-04T01:18:30.306Z,-0.20
2019-02-04T01:21:37.009Z,-0.10
2019-02-04T01:24:44.100Z,-0.10
2019-02-04T01:27:51.079Z,-0.10
2019-02-04T01:30:57.732Z,-0.10
2019-02-04T01:34:04.446Z,-0.10
2019-02-04T01:37:11.241Z,-0.10
2019-02-04T01:40:19.972Z,-0.10
2019-02-04T01:43:26.597Z,-0.10
2019-02-04T01:46:33.838Z,-0.20
2019-02-04T01:49:40.645Z,-0.10
2019-02-04T01:52:47.316Z,-0.10
2019-02-04T01:55:54.063Z,-0.10
2019-02-04T01:59:01.180Z,-0.20
2019-02-04T02:02:07.896Z,-0.20
2019-02-04T02:05:14.690Z,-0.20
2019-02-04T02:08:21.832Z,-0.20
2019-02-04T02:11:28.506Z,-0.20
2019-02-04T02:14:36.295Z,-0.20
2019-02-04T02:17:43.352Z,-0.20
2019-02-04T02:20:50.058Z,-0.20
2019-02-04T02:23:56.722Z,-0.20
2019-02-04T02:27:03.428Z,-0.20
2019-02-04T02:30:14.466Z,-0.20
2019-02-04T02:33:21.160Z,-0.20
2019-02-04T02:36:28.060Z,-0.20
2019-02-04T02:39:34.784Z,-0.20
2019-02-04T02:42:41.554Z,-0.20
2019-02-04T02:45:48.392Z,-0.20
2019-02-04T02:48:56.590Z,-0.20
2019-02-04T02:52:04.411Z,-0.20
2019-02-04T02:55:12.538Z,-0.20
2019-02-04T02:58:19.394Z,-0.20
2019-02-04T03:01:26.162Z,-0.20
2019-02-04T03:04:32.902Z,-0.20
2019-02-04T03:07:39.707Z,-0.20
2019-02-04T03:10:46.506Z,-0.20
2019-02-04T03:13:53.176Z,-0.20
2019-02-04T03:16:59.854Z,-0.20
2019-02-04T03:20:06.774Z,-0.20
2019-02-04T03:23:13.528Z,-0.10
2019-02-04T03:26:22.744Z,-0.10
2019-02-04T03:29:29.572Z,-0.10
2019-02-04T03:32:36.708Z,-0.10
2019-02-04T03:35:43.398Z,-0.10
2019-02-04T03:38:50.250Z,-0.10
2019-02-04T03:41:57.070Z,-0.10
2019-02-04T03:45:03.879Z,-0.10
2019-02-04T03:48:12.077Z,-0.10
2019-02-04T03:51:18.838Z,-0.10
2019-02-04T03:54:25.633Z,-0.10
2019-02-04T03:57:33.914Z,-0.10
2019-02-04T04:00:40.791Z,-0.10
2019-02-04T04:03:47.756Z,-0.10
2019-02-04T04:06:54.510Z,-0.10
2019-02-04T04:10:01.347Z,-0.10
2019-02-04T04:13:08.124Z,-0.10
2019-02-04T04:16:14.886Z,-0.10
2019-02-04T04:19:21.671Z,-0.10
2019-02-04T04:22:28.379Z,-0.10
2019-02-04T04:25:35.214Z,-0.10
2019-02-04T04:28:42.030Z,-0.10
2019-02-04T04:31:48.810Z,0.00
2019-02-04T04:34:55.476Z,0.00
2019-02-04T04:38:02.183Z,-0.10
2019-02-04T04:41:08.936Z,-0.10
2019-02-04T04:44:15.700Z,-0.10
2019-02-04T04:47:22.565Z,-0.10
2019-02-04T04:50:29.446Z,-0.10
2019-02-04T04:53:36.150Z,-0.10
2019-02-04T04:56:42.921Z,-0.10
2019-02-04T04:59:49.592Z,-0.10
2019-02-04T05:02:56.428Z,-0.10
2019-02-04T05:06:03.077Z,-0.10
2019-02-04T05:09:09.772Z,-0.10
2019-02-04T05:12:16.462Z,-0.10
2019-02-04T05:15:27.550Z,-0.20
2019-02-04T05:18:38.087Z,-0.20
2019-02-04T05:21:42.598Z,-0.10
2019-02-04T05:24:49.333Z,-0.20
2019-02-04T05:27:56.089Z,-0.20
2019-02-04T05:31:02.763Z,-0.20
2019-02-04T05:34:09.440Z,-0.20
2019-02-04T05:37:16.394Z,-0.10
2019-02-04T05:40:23.142Z,-0.10
2019-02-04T05:43:29.948Z,-0.20
2019-02-04T05:46:36.680Z,-0.20
2019-02-04T05:49:43.497Z,-0.20
2019-02-04T05:52:50.349Z,-0.20
2019-02-04T05:55:57.005Z,-0.20
2019-02-04T05:59:03.726Z,-0.20
2019-02-04T06:02:10.506Z,-0.20
2019-02-04T06:05:17.242Z,-0.10
2019-02-04T06:08:23.972Z,-0.10
2019-02-04T06:11:30.722Z,-0.20
2019-02-04T06:14:39.992Z,-0.20
2019-02-04T06:17:47.118Z,-0.20
2019-02-04T06:20:53.811Z,-0.10
2019-02-04T06:24:01.376Z,-0.10
2019-02-04T06:27:10.158Z,-0.10
2019-02-04T06:30:16.516Z,-0.10
2019-02-04T06:33:23.222Z,-0.10
2019-02-04T06:36:31.124Z,-0.10
2019-02-04T06:39:37.943Z,-0.10
2019-02-04T06:42:45.009Z,-0.10
2019-02-04T06:45:52.769Z,-0.10
2019-02-04T06:48:59.462Z,-0.10
2019-02-04T06:52:06.239Z,-0.10
2019-02-04T06:55:16.132Z,-0.10
2019-02-04T06:58:22.880Z,0.00
2019-02-04T07:01:29.665Z,0.00
2019-02-04T07:04:36.515Z,0.00
2019-02-04T07:07:44.676Z,0.00
2019-02-04T07:10:51.360Z,-0.10
2019-02-04T07:13:58.558Z,-0.10
2019-02-04T07:17:05.623Z,-0.10
2019-02-04T07:20:18.778Z,0.00
2019-02-04T07:23:26.219Z,0.00
2019-02-04T07:26:32.993Z,0.00
2019-02-04T07:29:40.668Z,0.00
2019-02-04T07:32:47.504Z,0.00
2019-02-04T07:35:54.338Z,0.00
2019-02-04T07:39:00.984Z,0.00
2019-02-04T07:42:08.934Z,0.00
2019-02-04T07:45:15.606Z,0.00
2019-02-04T07:48:22.307Z,0.00
2019-02-04T07:51:28.939Z,0.00
2019-02-04T07:54:35.764Z,0.00
2019-02-04T07:57:43.564Z,0.00
2019-02-04T08:00:50.305Z,0.00
2019-02-04T08:03:57.058Z,0.00
2019-02-04T08:07:03.807Z,0.00
2019-02-04T08:10:11.199Z,0.00
2019-02-04T08:13:17.891Z,0.00
2019-02-04T08:16:24.591Z,0.00
2019-02-04T08:19:32.497Z,0.00
2019-02-04T08:22:39.133Z,0.00
2019-02-04T08:25:45.922Z,0.00
2019-02-04T08:28:52.626Z,0.10
2019-02-04T08:31:59.881Z,0.20
2019-02-04T08:35:07.029Z,0.30
2019-02-04T08:38:13.647Z,0.30
2019-02-04T08:41:20.317Z,0.40
2019-02-04T08:44:29.413Z,0.40
2019-02-04T08:47:36.169Z,0.50
2019-02-04T08:50:42.811Z,0.50
2019-02-04T08:53:49.524Z,0.60
2019-02-04T08:56:56.164Z,0.60
2019-02-04T09:00:02.867Z,0.60
2019-02-04T09:03:10.049Z,0.60
2019-02-04T09:06:16.765Z,0.50
2019-02-04T09:09:23.402Z,0.50
2019-02-04T09:12:30.104Z,0.50
2019-02-04T09:15:36.766Z,0.40
2019-02-04T09:18:45.052Z,0.50
2019-02-04T09:21:51.917Z,0.50
2019-02-04T09:24:59.940Z,0.50
2019-02-04T09:28:06.807Z,0.50
2019-02-04T09:31:13.653Z,0.50
2019-02-04T09:34:20.347Z,0.60
2019-02-04T09:37:27.037Z,0.50
2019-02-04T09:40:38.902Z,0.50
2019-02-04T09:43:45.668Z,0.50
2019-02-04T09:46:52.822Z,0.50
2019-02-04T09:49:59.599Z,0.60
2019-02-04T09:53:06.339Z,0.60
2019-02-04T09:56:13.016Z,0.70
2019-02-04T09:59:20.976Z,0.70
2019-02-04T10:02:27.624Z,0.60
2019-02-04T10:05:34.357Z,0.60
2019-02-04T10:08:41.384Z,0.60
2019-02-04T10:11:48.065Z,0.50
2019-02-04T10:14:54.774Z,0.60
2019-02-04T10:18:01.454Z,0.50
2019-02-04T10:21:08.170Z,0.60
2019-02-04T10:24:14.914Z,0.50
2019-02-04T10:27:21.867Z,0.50
2019-02-04T10:30:29.057Z,0.50
2019-02-04T10:33:36.791Z,0.50
2019-02-04T10:36:43.479Z,0.50
2019-02-04T10:39:50.263Z,0.50
2019-02-04T10:42:56.975Z,0.50
2019-02-04T10:46:04.765Z,0.40
2019-02-04T10:49:11.903Z,0.40
2019-02-04T10:52:18.653Z,0.30
2019-02-04T10:55:25.376Z,0.30
2019-02-04T10:58:32.481Z,0.30
2019-02-04T11:01:39.271Z,0.30
2019-02-04T11:04:46.085Z,0.40
2019-02-04T11:07:52.904Z,0.40
2019-02-04T11:11:01.504Z,0.40
2019-02-04T11:14:08.394Z,0.30
2019-02-04T11:17:15.066Z,0.30
2019-02-04T11:20:26.495Z,0.20
2019-02-04T11:23:33.302Z,0.30
2019-02-04T11:26:40.258Z,0.20
2019-02-04T11:29:47.371Z,0.20
2019-02-04T11:32:54.181Z,0.30
2019-02-04T11:36:00.924Z,0.30
2019-02-04T11:39:09.517Z,0.40
2019-02-04T11:42:17.582Z,0.40
2019-02-04T11:45:24.391Z,0.40
2019-02-04T11:48:31.117Z,0.40
2019-02-04T11:51:37.785Z,0.40
2019-02-04T11:54:44.489Z,0.50
2019-02-04T11:57:51.247Z,0.60
2019-02-04T12:00:58.191Z,0.60
2019-02-04T12:04:05.320Z,0.70
2019-02-04T12:07:12.100Z,0.70
2019-02-04T12:10:24.531Z,0.60
2019-02-04T12:13:31.273Z,0.70
2019-02-04T12:16:38.003Z,0.70
2019-02-04T12:19:44.657Z,0.80
2019-02-04T12:22:51.751Z,0.80
2019-02-04T12:25:58.636Z,0.90
2019-02-04T12:29:05.271Z,0.90
2019-02-04T12:32:12.026Z,0.90
2019-02-04T12:35:18.659Z,0.80
2019-02-04T12:38:25.309Z,0.80
2019-02-04T12:41:31.999Z,0.80
2019-02-04T12:44:39.168Z,0.80
2019-02-04T12:47:46.072Z,0.80
2019-02-04T12:50:53.755Z,0.80
2019-02-04T12:54:00.520Z,0.80
2019-02-04T12:57:07.349Z,0.70
2019-02-04T13:00:17.259Z,0.60
2019-02-04T13:03:23.975Z,0.50
2019-02-04T13:06:31.108Z,0.50
2019-02-04T13:09:37.773Z,0.40
2019-02-04T13:12:44.553Z,0.50
2019-02-04T13:15:51.169Z,0.50
2019-02-04T13:18:57.854Z,0.40
2019-02-04T13:22:04.584Z,0.40
2019-02-04T13:25:12.943Z,0.50
2019-02-04T13:28:21.413Z,0.50
2019-02-04T13:31:28.151Z,0.50
2019-02-04T13:34:34.840Z,0.40
2019-02-04T13:37:41.519Z,0.40
2019-02-04T13:40:48.532Z,0.40
2019-02-04T13:43:55.264Z,0.30
2019-02-04T13:47:02.002Z,0.30
2019-02-04T13:50:08.674Z,0.20
2019-02-04T13:53:15.314Z,0.20
2019-02-04T13:56:22.131Z,0.40
2019-02-04T13:59:28.816Z,0.70
2019-02-04T14:02:36.015Z,1.00
2019-02-04T14:05:42.956Z,1.10
2019-02-04T14:08:49.612Z,1.10
2019-02-04T14:11:56.259Z,1.10
2019-02-04T14:15:03.031Z,1.10
2019-02-04T14:18:10.200Z,1.10
2019-02-04T14:21:16.878Z,1.00
2019-02-04T14:24:23.676Z,0.90
2019-02-04T14:27:30.307Z,0.90
2019-02-04T14:30:38.008Z,0.80
2019-02-04T14:33:44.809Z,0.60
2019-02-04T14:36:51.838Z,0.60
2019-02-04T14:39:58.557Z,0.50
2019-02-04T14:43:15.448Z,0.60
2019-02-04T14:47:15.702Z,0.50
2019-02-04T14:51:12.918Z,0.40
2019-02-04T14:54:56.523Z,0.40
2019-02-04T14:58:37.930Z,0.30
2019-02-04T15:02:25.761Z,0.30
2019-02-04T15:06:02.602Z,0.20
2019-02-04T15:09:36.224Z,0.20
2019-02-04T15:13:10.969Z,0.10
2019-02-04T15:16:36.161Z,0.00
2019-02-04T15:20:26.685Z,-0.10
2019-02-04T15:24:08.411Z,-0.20
2019-02-04T15:27:33.811Z,-0.30
2019-02-04T15:31:20.862Z,-0.30
2019-02-04T15:35:18.200Z,-0.40
2019-02-04T15:38:34.046Z,-0.30
2019-02-04T15:42:06.270Z,-0.30
2019-02-04T15:45:31.449Z,-0.40
2019-02-04T15:48:45.844Z,-0.40
2019-02-04T15:51:56.722Z,-0.40
2019-02-04T15:55:03.450Z,-0.50
2019-02-04T15:58:11.660Z,-0.50
2019-02-04T16:01:19.544Z,-0.50
2019-02-04T16:04:33.960Z,-0.50
2019-02-04T16:07:40.856Z,-0.50
2019-02-04T16:10:47.550Z,-0.60
2019-02-04T16:13:54.338Z,-0.60
2019-02-04T16:17:01.036Z,-0.50
2019-02-04T16:20:12.478Z,-0.50
2019-02-04T16:23:19.179Z,-0.50
2019-02-04T16:26:25.960Z,-0.50
2019-02-04T16:29:32.630Z,-0.50
2019-02-04T16:32:39.379Z,-0.50
2019-02-04T16:35:46.186Z,-0.50
2019-02-04T16:38:52.892Z,-0.50
2019-02-04T16:42:01.676Z,-0.50
2019-02-04T16:45:08.553Z,-0.50
2019-02-04T16:48:15.254Z,-0.50
2019-02-04T16:51:21.940Z,-0.50
2019-02-04T16:54:28.762Z,-0.50
2019-02-04T16:57:35.459Z,-0.50
2019-02-04T17:00:42.240Z,-0.50
2019-02-04T17:03:49.018Z,-0.50
2019-02-04T17:06:55.760Z,-0.50
2019-02-04T17:10:02.486Z,-0.60
2019-02-04T17:13:09.226Z,-0.50
2019-02-04T17:16:15.950Z,-0.50
2019-02-04T17:19:23.771Z,-0.60
2019-02-04T17:22:30.468Z,-0.60
2019-02-04T17:25:37.248Z,-0.60
2019-02-04T17:28:44.240Z,-0.60
2019-02-04T17:31:51.008Z,-0.60
2019-02-04T17:34:57.756Z,-0.60
2019-02-04T17:38:04.905Z,-0.60
2019-02-04T17:41:11.678Z,-0.60
2019-02-04T17:44:18.360Z,-0.60
2019-02-04T17:47:25.177Z,-0.60
2019-02-04T17:50:32.004Z,-0.60
2019-02-04T17:53:38.836Z,-0.60
2019-02-04T17:56:45.676Z,-0.60
2019-02-04T17:59:53.550Z,-0.60
2019-02-04T18:03:00.454Z,-0.60
2019-02-04T18:06:07.273Z,-0.60
2019-02-04T18:09:14.166Z,-0.60
2019-02-04T18:12:20.921Z,-0.60
2019-02-04T18:15:27.636Z,-0.60
2019-02-04T18:18:34.287Z,-0.60
2019-02-04T18:21:41.129Z,-0.60
2019-02-04T18:24:47.884Z,-0.60
2019-02-04T18:27:54.563Z,-0.60
2019-02-04T18:31:01.522Z,-0.60
2019-02-04T18:34:27.038Z,-0.60
2019-02-04T18:37:33.748Z,-0.60
2019-02-04T18:40:40.395Z,-0.60
2019-02-04T18:43:47.192Z,-0.60
2019-02-04T18:46:53.938Z,-0.60
2019-02-04T18:50:00.712Z,-0.60
2019-02-04T18:53:08.056Z,-0.70
2019-02-04T18:56:14.796Z,-0.70
2019-02-04T18:59:21.582Z,-0.70
2019-02-04T19:02:28.246Z,-0.70
2019-02-04T19:05:35.003Z,-0.80
2019-02-04T19:08:41.845Z,-0.80
2019-02-04T19:11:49.511Z,-0.80
2019-02-04T19:14:56.304Z,-0.70
2019-02-04T19:18:06.158Z,-0.70
2019-02-04T19:21:12.980Z,-0.70
2019-02-04T19:24:20.326Z,-0.80
2019-02-04T19:27:27.186Z,-0.80
2019-02-04T19:30:39.798Z,-0.70
2019-02-04T19:33:46.504Z,-0.70
2019-02-04T19:36:53.163Z,-0.80
2019-02-04T19:39:59.845Z,-0.80
2019-02-04T19:43:06.768Z,-0.70
2019-02-04T19:46:13.702Z,-0.70
2019-02-04T19:49:20.467Z,-0.70
2019-02-04T19:52:27.140Z,-0.70
2019-02-04T19:55:33.960Z,-0.70
2019-02-04T19:58:41.796Z,-0.80
2019-02-04T20:01:48.515Z,-0.80
2019-02-04T20:04:55.180Z,-0.80
2019-02-04T20:08:02.241Z,-0.70
2019-02-04T20:11:10.531Z,-0.70
2019-02-04T20:14:17.202Z,-0.70
2019-02-04T20:17:23.937Z,-0.70
2019-02-04T20:20:30.599Z,-0.70
2019-02-04T20:23:37.446Z,-0.70
2019-02-04T20:26:44.147Z,-0.70
2019-02-04T20:29:51.072Z,-0.70
2019-02-04T20:32:57.778Z,-0.70
2019-02-04T20:36:04.474Z,-0.70
2019-02-04T20:39:11.178Z,-0.70
2019-02-04T20:42:18.326Z,-0.70
2019-02-04T20:45:25.039Z,-0.70
2019-02-04T20:48:31.772Z,-0.70
2019-02-04T20:51:38.580Z,-0.80
2019-02-04T20:54:45.403Z,-0.70
2019-02-04T20:57:52.114Z,-0.70
2019-02-04T21:00:59.103Z,-0.70
2019-02-04T21:04:05.736Z,-0.80
2019-02-04T21:07:12.606Z,-0.80
2019-02-04T21:10:20.945Z,-0.90
2019-02-04T21:13:27.645Z,-1.00
2019-02-04T21:16:34.324Z,-1.00
2019-02-04T21:19:41.028Z,-1.00
2019-02-04T21:22:49.256Z,-1.00
2019-02-04T21:25:56.041Z,-1.00
2019-02-04T21:29:04.401Z,-0.90
2019-02-04T21:32:11.160Z,-0.90
2019-02-04T21:35:17.839Z,-0.90
2019-02-04T21:38:25.658Z,-0.90
2019-02-04T21:41:32.583Z,-0.90
2019-02-04T21:44:39.204Z,-0.80
2019-02-04T21:47:45.885Z,-0.90
2019-02-04T21:50:52.629Z,-0.90
2019-02-04T21:53:59.349Z,-1.00
2019-02-04T21:57:06.145Z,-1.10
2019-02-04T22:00:24.429Z,-1.10
2019-02-04T22:03:31.512Z,-1.10
2019-02-04T22:06:38.441Z,-1.00
2019-02-04T22:09:45.228Z,-1.00
2019-02-04T22:12:52.247Z,-1.00
2019-02-04T22:15:58.940Z,-1.00
2019-02-04T22:19:05.762Z,-0.90
2019-02-04T22:22:12.572Z,-0.90
2019-02-04T22:25:20.341Z,-1.10
2019-02-04T22:28:27.329Z,-1.10
2019-02-04T22:31:34.424Z,-1.20
2019-02-04T22:34:41.415Z,-1.10
2019-02-04T22:37:49.189Z,-1.20
2019-02-04T22:40:55.985Z,-1.20
2019-02-04T22:44:02.732Z,-1.10
2019-02-04T22:47:09.425Z,-1.10
2019-02-04T22:50:21.459Z,-1.10
2019-02-04T22:53:28.200Z,-1.20
2019-02-04T22:56:35.061Z,-1.10
2019-02-04T22:59:41.769Z,-1.10
2019-02-04T23:02:48.877Z,-1.10
2019-02-04T23:05:55.593Z,-1.00
2019-02-04T23:09:02.380Z,-1.00
2019-02-04T23:12:10.547Z,-1.00
2019-02-04T23:15:17.307Z,-1.10
2019-02-04T23:18:23.961Z,-1.10
2019-02-04T23:21:31.094Z,-1.10
2019-02-04T23:24:38.121Z,-1.20
2019-02-04T23:27:44.954Z,-1.30
2019-02-04T23:30:51.741Z,-1.30
2019-02-04T23:33:58.474Z,-1.20
2019-02-04T23:37:05.356Z,-1.20
2019-02-04T23:40:12.355Z,-1.10
2019-02-04T23:43:19.034Z,-1.10
2019-02-04T23:46:25.705Z,-1.10
2019-02-04T23:49:32.441Z,-1.00
2019-02-04T23:52:39.149Z,-1.00
2019-02-04T23:55:54.271Z,-0.90
2019-02-04T23:58:54.224Z,-0.90
